Time;durP1;ratioP1;P1;durP2;ratioP2;P2;SDS_P1;SDS_P2;PMS_P1;PMS_P2;Temp;Humidity;BMP_temperature;BMP_pressure;BME280_temperature;BME280_humidity;BME280_pressure;Samples;Min_cycle;Max_cycle;Signal;HPM_P1;HPM_P2
2023/09/24 00:01:13;;;;;;;6.70;2.40;;;;;;;;;;6108823;23;20173;-92
2023/09/24 00:04:18;;;;;;;6.93;2.72;;;;;;;;;;6109565;23;20185;-93
2023/09/24 00:07:25;;;;;;;25.02;3.15;;;;;;;;;;6107581;23;20194;-92
2023/09/24 00:10:33;;;;;;;4.80;2.53;;;;;;;;;;6107622;23;20186;-90
2023/09/24 00:13:40;;;;;;;3.33;2.30;;;;;;;;;;6109528;23;20200;-91
2023/09/24 00:16:45;;;;;;;5.47;2.60;;;;;;;;;;6110103;23;20242;-92
2023/09/24 00:19:50;;;;;;;4.43;2.42;;;;;;;;;;6109391;23;20186;-92
2023/09/24 00:22:55;;;;;;;4.75;2.22;;;;;;;;;;6111666;23;20189;-92
2023/09/24 00:26:00;;;;;;;6.88;2.85;;;;;;;;;;6111861;23;20169;-93
2023/09/24 00:29:06;;;;;;;5.68;2.65;;;;;;;;;;6109467;23;20169;-92
2023/09/24 00:32:11;;;;;;;4.18;2.63;;;;;;;;;;6110680;23;20157;-90
2023/09/24 00:35:18;;;;;;;5.20;2.13;;;;;;;;;;6110359;23;20218;-91
2023/09/24 00:38:23;;;;;;;6.40;2.40;;;;;;;;;;6108933;23;20505;-91
2023/09/24 00:41:28;;;;;;;5.13;2.53;;;;;;;;;;6109145;23;20173;-93
2023/09/24 00:44:35;;;;;;;4.10;2.40;;;;;;;;;;6109696;23;20198;-90
2023/09/24 00:47:45;;;;;;;3.15;2.25;;;;;;;;;;6110132;23;20174;-94
2023/09/24 00:50:50;;;;;;;3.80;2.17;;;;;;;;;;6121160;23;20189;-91
2023/09/24 00:53:55;;;;;;;3.35;2.42;;;;;;;;;;6122769;23;20184;-93
2023/09/24 00:57:01;;;;;;;5.95;2.70;;;;;;;;;;6122550;23;20176;-94
2023/09/24 01:00:11;;;;;;;7.07;2.30;;;;;;;;;;6120729;23;20198;-91
2023/09/24 01:03:18;;;;;;;7.18;2.65;;;;;;;;;;6122063;23;20200;-92
2023/09/24 01:06:24;;;;;;;8.55;2.80;;;;;;;;;;6121387;23;20168;-93
2023/09/24 01:09:29;;;;;;;4.75;2.50;;;;;;;;;;6121039;23;20173;-91
2023/09/24 01:12:39;;;;;;;6.82;2.70;;;;;;;;;;6119272;23;20220;-91
2023/09/24 01:15:48;;;;;;;5.30;2.65;;;;;;;;;;6120057;23;20172;-92
2023/09/24 01:18:54;;;;;;;5.00;2.67;;;;;;;;;;6120516;23;20238;-90
2023/09/24 01:22:02;;;;;;;20.83;3.45;;;;;;;;;;6119017;23;20177;-92
2023/09/24 01:25:07;;;;;;;14.18;3.00;;;;;;;;;;6119797;23;20276;-91
2023/09/24 01:28:12;;;;;;;5.70;2.75;;;;;;;;;;6119511;23;20169;-94
2023/09/24 01:31:18;;;;;;;9.27;3.10;;;;;;;;;;6118997;23;20239;-92
2023/09/24 01:34:23;;;;;;;17.75;3.03;;;;;;;;;;6118909;23;20176;-90
2023/09/24 01:37:33;;;;;;;6.30;3.55;;;;;;;;;;6116684;23;20166;-92
2023/09/24 01:40:38;;;;;;;34.78;4.35;;;;;;;;;;6118190;23;20173;-90
2023/09/24 01:43:44;;;;;;;7.47;3.40;;;;;;;;;;6118438;23;20713;-92
2023/09/24 01:46:52;;;;;;;8.25;3.38;;;;;;;;;;6116619;23;20193;-91
2023/09/24 01:49:58;;;;;;;13.13;2.97;;;;;;;;;;6106051;23;20242;-93
2023/09/24 01:53:05;;;;;;;10.13;3.20;;;;;;;;;;6106548;23;20177;-92
2023/09/24 01:56:10;;;;;;;7.68;2.97;;;;;;;;;;6107277;23;20157;-90
2023/09/24 01:59:16;;;;;;;9.90;3.60;;;;;;;;;;6107295;23;20169;-90
2023/09/24 02:02:22;;;;;;;5.80;2.88;;;;;;;;;;6107558;23;20173;-92
2023/09/24 02:05:32;;;;;;;6.72;2.80;;;;;;;;;;6106170;23;20249;-91
2023/09/24 02:08:39;;;;;;;7.78;2.83;;;;;;;;;;6107038;23;20169;-90
2023/09/24 02:11:44;;;;;;;4.72;3.05;;;;;;;;;;6107003;23;20190;-92
2023/09/24 02:14:50;;;;;;;7.18;3.42;;;;;;;;;;6106738;23;20173;-94
2023/09/24 02:17:54;;;;;;;7.25;3.88;;;;;;;;;;6106247;23;20185;-91
2023/09/24 02:20:59;;;;;;;11.48;3.55;;;;;;;;;;6107243;23;20181;-91
2023/09/24 02:24:07;;;;;;;6.68;3.38;;;;;;;;;;6107711;23;20277;-91
2023/09/24 02:27:13;;;;;;;7.05;3.72;;;;;;;;;;6108842;23;20173;-93
2023/09/24 02:30:17;;;;;;;10.55;3.47;;;;;;;;;;6107615;23;20633;-92
2023/09/24 02:33:22;;;;;;;6.22;3.50;;;;;;;;;;6107868;23;20294;-93
2023/09/24 02:36:27;;;;;;;13.70;3.78;;;;;;;;;;6107653;23;20191;-91
2023/09/24 02:39:34;;;;;;;5.00;3.63;;;;;;;;;;6107663;23;20505;-92
2023/09/24 02:42:39;;;;;;;6.88;3.53;;;;;;;;;;6107380;23;20221;-92
2023/09/24 02:45:44;;;;;;;22.05;3.83;;;;;;;;;;6106795;23;20173;-93
2023/09/24 02:48:51;;;;;;;15.23;3.50;;;;;;;;;;6106470;23;20263;-91
2023/09/24 02:51:56;;;;;;;12.48;3.25;;;;;;;;;;6105813;23;20193;-90
2023/09/24 02:55:03;;;;;;;5.15;3.28;;;;;;;;;;6106689;23;20157;-92
2023/09/24 02:58:08;;;;;;;6.47;3.10;;;;;;;;;;6107205;23;20468;-90
2023/09/24 03:01:15;;;;;;;7.28;3.30;;;;;;;;;;6106935;23;20788;-93
2023/09/24 03:04:20;;;;;;;5.13;3.20;;;;;;;;;;6106631;23;20193;-89
2023/09/24 03:07:25;;;;;;;8.98;3.40;;;;;;;;;;6106073;23;20166;-93
2023/09/24 03:10:32;;;;;;;6.35;3.30;;;;;;;;;;6107719;23;20170;-92
2023/09/24 03:13:37;;;;;;;6.15;3.03;;;;;;;;;;6106426;23;20158;-94
2023/09/24 03:16:42;;;;;;;5.47;3.17;;;;;;;;;;6107598;23;20174;-93
2023/09/24 03:19:47;;;;;;;10.45;3.50;;;;;;;;;;6107321;23;20499;-92
2023/09/24 03:22:53;;;;;;;8.63;3.30;;;;;;;;;;6107423;23;20178;-92
2023/09/24 03:26:00;;;;;;;4.18;2.83;;;;;;;;;;6108416;23;20719;-91
2023/09/24 03:29:05;;;;;;;7.07;3.38;;;;;;;;;;6107601;23;20235;-91
2023/09/24 03:32:11;;;;;;;10.13;3.17;;;;;;;;;;6109650;23;20158;-92
2023/09/24 03:35:19;;;;;;;6.75;3.10;;;;;;;;;;6107812;23;20166;-89
2023/09/24 03:38:26;;;;;;;8.48;3.90;;;;;;;;;;6107972;23;20174;-90
2023/09/24 03:41:33;;;;;;;4.78;3.40;;;;;;;;;;6110208;23;20236;-91
2023/09/24 03:44:39;;;;;;;29.13;3.55;;;;;;;;;;6109830;23;20198;-90
2023/09/24 03:47:45;;;;;;;20.45;3.78;;;;;;;;;;6110949;23;20240;-91
2023/09/24 03:50:50;;;;;;;19.48;3.83;;;;;;;;;;6122099;23;20241;-93
2023/09/24 03:53:56;;;;;;;21.77;4.18;;;;;;;;;;6120649;23;20188;-93
2023/09/24 03:57:02;;;;;;;11.93;3.90;;;;;;;;;;6119699;23;20164;-91
2023/09/24 04:00:11;;;;;;;7.07;3.97;;;;;;;;;;6119622;23;20169;-92
2023/09/24 04:03:18;;;;;;;5.93;3.47;;;;;;;;;;6138127;23;20251;-93
2023/09/24 04:06:24;;;;;;;7.03;4.00;;;;;;;;;;6120654;23;20270;-92
2023/09/24 04:09:31;;;;;;;7.20;3.30;;;;;;;;;;6121894;23;20237;-91
2023/09/24 04:12:37;;;;;;;5.65;3.40;;;;;;;;;;6120938;23;20180;-90
2023/09/24 04:15:42;;;;;;;7.80;3.55;;;;;;;;;;6121526;23;20201;-92
2023/09/24 04:18:47;;;;;;;5.25;3.08;;;;;;;;;;6122363;23;20164;-90
2023/09/24 04:21:53;;;;;;;4.75;3.22;;;;;;;;;;6121732;23;20192;-90
2023/09/24 04:24:57;;;;;;;7.05;3.60;;;;;;;;;;6121919;23;20245;-90
2023/09/24 04:28:04;;;;;;;5.55;3.53;;;;;;;;;;6123858;23;20605;-91
2023/09/24 04:31:09;;;;;;;6.03;3.45;;;;;;;;;;6122503;23;20177;-88
2023/09/24 04:34:15;;;;;;;7.78;3.70;;;;;;;;;;6121704;23;20305;-89
2023/09/24 04:37:20;;;;;;;6.05;3.95;;;;;;;;;;6122151;23;20612;-90
2023/09/24 04:40:26;;;;;;;6.25;3.00;;;;;;;;;;6121393;23;20169;-92
2023/09/24 04:43:35;;;;;;;8.57;2.80;;;;;;;;;;6121731;23;20182;-93
2023/09/24 04:46:40;;;;;;;6.82;3.45;;;;;;;;;;6120772;23;20173;-90
2023/09/24 04:49:46;;;;;;;5.25;3.30;;;;;;;;;;6108777;23;20190;-88
2023/09/24 04:52:54;;;;;;;7.82;3.70;;;;;;;;;;6108746;23;20174;-92
2023/09/24 04:55:59;;;;;;;8.65;4.05;;;;;;;;;;6109156;23;20178;-91
2023/09/24 04:59:07;;;;;;;5.32;2.90;;;;;;;;;;6107725;23;20178;-92
2023/09/24 05:02:12;;;;;;;7.40;3.03;;;;;;;;;;6107609;23;20166;-91
2023/09/24 05:05:17;;;;;;;6.40;2.85;;;;;;;;;;6106943;23;20727;-93
2023/09/24 05:08:22;;;;;;;4.50;2.40;;;;;;;;;;6107968;23;20170;-92
2023/09/24 05:11:27;;;;;;;4.57;2.95;;;;;;;;;;6109275;23;20161;-90
2023/09/24 05:14:33;;;;;;;6.13;3.28;;;;;;;;;;6109678;23;20170;-90
2023/09/24 05:17:40;;;;;;;6.03;3.30;;;;;;;;;;6108119;23;20157;-91
2023/09/24 05:20:46;;;;;;;5.40;3.03;;;;;;;;;;6106944;23;20158;-91
2023/09/24 05:23:51;;;;;;;6.10;3.22;;;;;;;;;;6107316;23;20232;-93
2023/09/24 05:26:56;;;;;;;3.85;2.83;;;;;;;;;;6107162;23;20213;-90
2023/09/24 05:30:02;;;;;;;10.82;3.60;;;;;;;;;;6107323;23;20170;-92
2023/09/24 05:33:07;;;;;;;6.05;3.63;;;;;;;;;;6108447;23;20265;-91
2023/09/24 05:36:13;;;;;;;9.10;4.20;;;;;;;;;;6108184;23;20500;-92
2023/09/24 05:39:17;;;;;;;8.13;4.15;;;;;;;;;;6107876;23;20188;-93
2023/09/24 05:42:23;;;;;;;6.47;3.38;;;;;;;;;;6105879;23;20213;-92
2023/09/24 05:45:30;;;;;;;5.97;3.60;;;;;;;;;;6106476;23;20176;-91
2023/09/24 05:48:35;;;;;;;6.00;3.60;;;;;;;;;;6119528;23;20196;-93
2023/09/24 05:51:40;;;;;;;5.20;3.40;;;;;;;;;;6120696;23;20264;-90
2023/09/24 05:54:45;;;;;;;5.22;3.67;;;;;;;;;;6119156;23;20244;-91
2023/09/24 05:57:50;;;;;;;4.40;2.80;;;;;;;;;;6120981;23;20177;-93
2023/09/24 06:00:58;;;;;;;6.55;3.67;;;;;;;;;;6118667;23;20297;-90
2023/09/24 06:04:03;;;;;;;8.13;3.13;;;;;;;;;;6119713;23;20169;-92
2023/09/24 06:07:09;;;;;;;6.97;3.55;;;;;;;;;;6119875;23;20165;-92
2023/09/24 06:10:14;;;;;;;10.00;3.50;;;;;;;;;;6119110;23;20230;-90
2023/09/24 06:13:19;;;;;;;9.75;3.63;;;;;;;;;;6120203;23;20169;-91
2023/09/24 06:16:25;;;;;;;5.88;3.45;;;;;;;;;;6119916;23;20367;-93
2023/09/24 06:19:30;;;;;;;6.50;3.58;;;;;;;;;;6118616;23;20168;-92
2023/09/24 06:22:35;;;;;;;8.23;3.85;;;;;;;;;;6119947;23;20180;-92
2023/09/24 06:25:40;;;;;;;5.60;4.00;;;;;;;;;;6121474;23;20193;-94
2023/09/24 06:28:45;;;;;;;10.05;4.47;;;;;;;;;;6121021;23;20164;-92
2023/09/24 06:31:52;;;;;;;5.63;3.80;;;;;;;;;;6120549;23;20286;-92
2023/09/24 06:34:57;;;;;;;7.13;3.75;;;;;;;;;;6121759;23;20148;-92
2023/09/24 06:38:04;;;;;;;5.45;3.55;;;;;;;;;;6121216;23;20173;-92
2023/09/24 06:41:09;;;;;;;6.10;3.15;;;;;;;;;;6120690;23;20236;-90
2023/09/24 06:44:21;;;;;;;6.05;3.55;;;;;;;;;;6118635;23;20176;-92
2023/09/24 06:47:28;;;;;;;6.63;3.67;;;;;;;;;;6119634;23;20220;-93
2023/09/24 06:50:34;;;;;;;5.60;3.28;;;;;;;;;;6119117;23;20170;-92
2023/09/24 06:53:40;;;;;;;6.43;3.33;;;;;;;;;;6122228;23;20169;-92
2023/09/24 06:56:45;;;;;;;6.75;3.33;;;;;;;;;;6118980;23;20278;-91
2023/09/24 06:59:50;;;;;;;9.32;3.20;;;;;;;;;;6119009;23;20173;-92
2023/09/24 07:02:57;;;;;;;6.05;3.22;;;;;;;;;;6119909;23;20152;-93
2023/09/24 07:06:04;;;;;;;6.45;3.10;;;;;;;;;;6119386;23;20648;-93
2023/09/24 07:09:09;;;;;;;5.18;2.97;;;;;;;;;;6119622;23;20168;-92
2023/09/24 07:12:16;;;;;;;5.80;3.42;;;;;;;;;;6117979;23;20177;-92
2023/09/24 07:15:21;;;;;;;5.38;3.33;;;;;;;;;;6123240;23;20169;-91
2023/09/24 07:18:28;;;;;;;4.43;3.20;;;;;;;;;;6123806;23;20168;-90
2023/09/24 07:21:35;;;;;;;5.90;2.85;;;;;;;;;;6121802;23;20213;-92
2023/09/24 07:24:40;;;;;;;5.18;2.83;;;;;;;;;;6120914;23;20185;-92
2023/09/24 07:27:46;;;;;;;6.03;3.17;;;;;;;;;;6127066;23;20172;-91
2023/09/24 07:30:52;;;;;;;4.43;2.90;;;;;;;;;;6125201;23;20170;-90
2023/09/24 07:34:00;;;;;;;5.38;2.92;;;;;;;;;;6123956;23;20198;-92
2023/09/24 07:37:07;;;;;;;3.53;2.65;;;;;;;;;;6122389;23;20172;-92
2023/09/24 07:40:14;;;;;;;3.83;2.90;;;;;;;;;;6122226;23;20282;-92
2023/09/24 07:43:27;;;;;;;7.25;3.28;;;;;;;;;;6125144;23;20202;-92
2023/09/24 07:46:32;;;;;;;4.63;3.00;;;;;;;;;;6125006;23;20221;-93
2023/09/24 07:49:44;;;;;;;5.43;3.15;;;;;;;;;;6111185;23;20241;-93
2023/09/24 07:52:49;;;;;;;6.85;3.33;;;;;;;;;;6110302;23;20178;-94
2023/09/24 07:55:55;;;;;;;5.18;2.75;;;;;;;;;;6110432;23;20261;-92
2023/09/24 07:59:02;;;;;;;6.13;2.80;;;;;;;;;;6109010;23;20203;-93
2023/09/24 08:02:07;;;;;;;3.70;2.38;;;;;;;;;;6110218;23;20170;-93
2023/09/24 08:05:15;;;;;;;6.82;2.75;;;;;;;;;;6110679;23;20246;-94
2023/09/24 08:08:28;;;;;;;4.22;2.65;;;;;;;;;;6112420;23;20302;-91
2023/09/24 08:11:33;;;;;;;3.38;2.75;;;;;;;;;;6112835;23;20173;-93
2023/09/24 08:14:38;;;;;;;3.50;2.70;;;;;;;;;;6111288;23;20199;-91
2023/09/24 08:17:43;;;;;;;7.07;2.80;;;;;;;;;;6111820;23;20158;-93
2023/09/24 08:20:53;;;;;;;5.05;2.95;;;;;;;;;;6110943;23;20253;-93
2023/09/24 08:23:58;;;;;;;3.83;2.50;;;;;;;;;;6112642;23;20174;-91
2023/09/24 08:27:03;;;;;;;5.00;2.60;;;;;;;;;;6111845;23;20649;-92
2023/09/24 08:30:09;;;;;;;4.32;2.58;;;;;;;;;;6110240;23;20158;-92
2023/09/24 08:33:15;;;;;;;6.13;2.63;;;;;;;;;;6110595;23;20185;-94
2023/09/24 08:36:22;;;;;;;4.00;3.00;;;;;;;;;;6110476;23;20170;-93
2023/09/24 08:39:27;;;;;;;4.15;2.85;;;;;;;;;;6109708;23;20218;-94
2023/09/24 08:42:33;;;;;;;5.00;3.20;;;;;;;;;;6110929;23;20214;-90
2023/09/24 08:45:40;;;;;;;5.50;2.85;;;;;;;;;;6108799;23;20193;-91
2023/09/24 08:48:46;;;;;;;4.28;2.65;;;;;;;;;;6109880;23;20200;-90
2023/09/24 08:51:52;;;;;;;6.18;3.03;;;;;;;;;;6108976;23;20170;-92
2023/09/24 08:54:57;;;;;;;4.78;2.97;;;;;;;;;;6108855;23;20149;-90
2023/09/24 08:58:02;;;;;;;5.45;2.65;;;;;;;;;;6107666;23;20181;-92
2023/09/24 09:01:10;;;;;;;6.45;3.25;;;;;;;;;;6109310;23;20157;-92
2023/09/24 09:04:15;;;;;;;6.75;2.90;;;;;;;;;;6106973;23;20207;-92
2023/09/24 09:07:25;;;;;;;5.97;2.40;;;;;;;;;;6107714;23;20269;-93
2023/09/24 09:10:31;;;;;;;5.28;2.05;;;;;;;;;;6109700;23;20222;-94
2023/09/24 09:13:36;;;;;;;4.43;1.90;;;;;;;;;;6108411;23;20170;-92
2023/09/24 09:16:57;;;;;;;4.47;1.70;;;;;;;;;;6111140;23;20658;-92
2023/09/24 09:20:02;;;;;;;6.18;1.40;;;;;;;;;;6109642;23;20173;-93
2023/09/24 09:23:16;;;;;;;3.65;1.50;;;;;;;;;;6106985;23;20243;-92
2023/09/24 09:26:27;;;;;;;2.33;1.05;;;;;;;;;;6110353;23;20201;-92
2023/09/24 09:29:32;;;;;;;3.20;1.48;;;;;;;;;;6109197;23;20250;-92
2023/09/24 09:32:40;;;;;;;4.45;1.00;;;;;;;;;;6110408;23;20175;-92
2023/09/24 09:35:45;;;;;;;4.55;1.55;;;;;;;;;;6110279;23;20185;-92
2023/09/24 09:38:52;;;;;;;3.20;1.30;;;;;;;;;;6108155;23;20165;-93
2023/09/24 09:41:57;;;;;;;3.63;1.20;;;;;;;;;;6111649;23;20249;-94
2023/09/24 09:45:04;;;;;;;2.88;1.13;;;;;;;;;;6109592;23;20173;-91
2023/09/24 09:48:13;;;;;;;3.65;1.80;;;;;;;;;;6113276;23;20188;-92
2023/09/24 09:51:21;;;;;;;2.70;1.20;;;;;;;;;;6122100;23;20156;-92
2023/09/24 09:54:33;;;;;;;3.65;1.30;;;;;;;;;;6121101;23;20168;-92
2023/09/24 09:57:40;;;;;;;6.97;1.65;;;;;;;;;;6121144;23;20213;-91
2023/09/24 10:00:46;;;;;;;3.00;1.25;;;;;;;;;;6122139;23;20492;-92
2023/09/24 10:03:52;;;;;;;3.17;1.35;;;;;;;;;;6119739;23;20172;-92
2023/09/24 10:06:57;;;;;;;4.45;1.75;;;;;;;;;;6121678;23;20240;-94
2023/09/24 10:10:24;;;;;;;3.85;1.45;;;;;;;;;;6119457;23;20216;-93
2023/09/24 10:13:47;;;;;;;5.15;1.65;;;;;;;;;;6122746;23;20172;-92
2023/09/24 10:16:52;;;;;;;2.50;1.10;;;;;;;;;;6123199;23;20200;-92
2023/09/24 10:19:59;;;;;;;4.50;1.50;;;;;;;;;;6120598;23;20216;-91
2023/09/24 10:23:19;;;;;;;3.63;1.23;;;;;;;;;;6120480;23;20184;-92
2023/09/24 10:26:38;;;;;;;2.85;1.30;;;;;;;;;;6119894;23;20165;-91
2023/09/24 10:30:12;;;;;;;2.47;1.23;;;;;;;;;;6122436;23;20177;-92
2023/09/24 10:33:40;;;;;;;2.72;1.15;;;;;;;;;;6123628;23;20164;-93
2023/09/24 10:36:44;;;;;;;3.40;1.30;;;;;;;;;;6121892;23;20192;-92
2023/09/24 10:40:05;;;;;;;4.70;1.52;;;;;;;;;;6123360;23;20205;-93
2023/09/24 10:43:15;;;;;;;5.88;1.60;;;;;;;;;;6127398;23;20190;-93
2023/09/24 10:46:28;;;;;;;3.42;1.50;;;;;;;;;;6144243;23;20172;-92
2023/09/24 10:49:50;;;;;;;4.28;1.90;;;;;;;;;;6114579;23;20217;-92
2023/09/24 10:53:02;;;;;;;3.50;1.42;;;;;;;;;;6114024;23;20226;-93
2023/09/24 10:56:10;;;;;;;1.70;1.15;;;;;;;;;;6112751;23;20216;-93
2023/09/24 10:59:16;;;;;;;2.22;1.30;;;;;;;;;;6110357;23;20202;-93
2023/09/24 11:02:26;;;;;;;2.67;0.95;;;;;;;;;;6113269;23;20157;-91
2023/09/24 11:08:58;;;;;;;5.10;1.58;;;;;;;;;;6113857;23;20189;-95
2023/09/24 13:09:58;;;;;;;2.53;1.30;;;;;;;;;;6097142;23;20213;-92
2023/09/24 13:13:03;;;;;;;4.28;1.20;;;;;;;;;;6121701;23;20181;-92
2023/09/24 13:16:08;;;;;;;3.83;1.83;;;;;;;;;;6120136;23;20205;-91
2023/09/24 13:19:13;;;;;;;3.58;1.30;;;;;;;;;;6125270;23;20249;-91
2023/09/24 13:22:18;;;;;;;4.00;1.60;;;;;;;;;;6127860;23;20172;-90
2023/09/24 13:25:27;;;;;;;3.72;1.55;;;;;;;;;;6123799;23;20306;-92
2023/09/24 13:28:32;;;;;;;4.40;1.52;;;;;;;;;;6124413;23;20165;-91
2023/09/24 13:31:38;;;;;;;4.07;1.58;;;;;;;;;;6120594;23;20185;-90
2023/09/24 13:34:43;;;;;;;3.88;1.33;;;;;;;;;;6121731;23;20181;-93
2023/09/24 13:37:49;;;;;;;6.15;1.60;;;;;;;;;;6120686;23;20189;-91
2023/09/24 13:40:56;;;;;;;2.70;1.20;;;;;;;;;;6123864;23;20247;-90
2023/09/24 13:44:03;;;;;;;5.50;1.30;;;;;;;;;;6121666;23;20219;-92
2023/09/24 13:47:15;;;;;;;3.28;1.23;;;;;;;;;;6121475;23;20165;-93
2023/09/24 13:50:20;;;;;;;3.17;1.10;;;;;;;;;;6121868;23;20756;-91
2023/09/24 13:53:25;;;;;;;2.78;1.10;;;;;;;;;;6122487;23;20218;-92
2023/09/24 13:56:32;;;;;;;4.50;1.65;;;;;;;;;;6122686;23;20193;-89
2023/09/24 13:59:40;;;;;;;4.82;1.65;;;;;;;;;;6121686;23;20240;-89
2023/09/24 14:02:47;;;;;;;4.03;1.90;;;;;;;;;;6126840;23;20560;-92
2023/09/24 14:15:09;;;;;;;6.60;2.38;;;;;;;;;;6123635;23;20239;-91
2023/09/24 14:18:16;;;;;;;3.97;1.92;;;;;;;;;;6120763;23;20185;-92
2023/09/24 14:21:24;;;;;;;7.93;2.17;;;;;;;;;;6123154;23;20234;-90
2023/09/24 14:24:30;;;;;;;4.43;2.42;;;;;;;;;;6122105;23;20177;-91
2023/09/24 14:27:37;;;;;;;6.18;2.10;;;;;;;;;;6121793;23;20173;-93
2023/09/24 14:30:44;;;;;;;5.78;2.00;;;;;;;;;;6121386;23;20176;-91
2023/09/24 14:33:49;;;;;;;4.57;2.05;;;;;;;;;;6119914;23;20177;-92
2023/09/24 14:36:55;;;;;;;4.55;2.33;;;;;;;;;;6120432;23;20318;-92
2023/09/24 14:39:59;;;;;;;11.23;2.58;;;;;;;;;;6121005;23;20317;-90
2023/09/24 14:43:08;;;;;;;6.25;2.38;;;;;;;;;;6120043;23;20250;-92
2023/09/24 14:46:16;;;;;;;5.88;2.35;;;;;;;;;;6118567;23;20227;-93
2023/09/24 14:49:21;;;;;;;5.93;2.25;;;;;;;;;;6119702;23;20160;-92
2023/09/24 14:52:25;;;;;;;4.57;2.25;;;;;;;;;;6118425;23;20166;-94
2023/09/24 14:55:31;;;;;;;5.55;2.10;;;;;;;;;;6118682;23;20176;-91
2023/09/24 14:58:38;;;;;;;4.32;1.95;;;;;;;;;;6119003;23;20173;-94
2023/09/24 15:01:43;;;;;;;5.97;2.17;;;;;;;;;;6121107;23;20189;-93
2023/09/24 15:04:53;;;;;;;5.40;1.80;;;;;;;;;;6123410;23;20182;-90
2023/09/24 15:07:59;;;;;;;5.18;1.85;;;;;;;;;;6122847;23;20158;-91
2023/09/24 15:11:05;;;;;;;3.45;1.70;;;;;;;;;;6108396;23;20618;-91
2023/09/24 15:14:12;;;;;;;4.63;2.63;;;;;;;;;;6110322;23;20254;-91
2023/09/24 15:17:18;;;;;;;4.38;2.10;;;;;;;;;;6111666;23;20198;-91
2023/09/24 15:20:23;;;;;;;4.68;2.40;;;;;;;;;;6111751;23;20189;-93
2023/09/24 15:23:28;;;;;;;4.75;2.17;;;;;;;;;;6113310;23;20173;-92
2023/09/24 15:26:32;;;;;;;4.07;2.10;;;;;;;;;;6112650;23;20174;-92
2023/09/24 15:29:39;;;;;;;3.58;1.58;;;;;;;;;;6110968;23;20206;-92
2023/09/24 15:32:44;;;;;;;3.85;1.85;;;;;;;;;;6111067;23;20174;-90
2023/09/24 15:35:50;;;;;;;6.03;1.98;;;;;;;;;;6112067;23;20170;-92
2023/09/24 15:38:55;;;;;;;5.82;2.42;;;;;;;;;;6112056;23;20253;-91
2023/09/24 15:42:00;;;;;;;5.95;2.05;;;;;;;;;;6114072;23;20163;-91
2023/09/24 15:45:28;;;;;;;3.55;1.75;;;;;;;;;;6112548;23;20189;-90
2023/09/24 15:48:36;;;;;;;4.63;2.20;;;;;;;;;;6130266;23;20156;-91
2023/09/24 15:51:41;;;;;;;5.72;1.67;;;;;;;;;;6111765;23;20227;-91
2023/09/24 15:54:46;;;;;;;6.78;2.20;;;;;;;;;;6113162;23;20218;-90
2023/09/24 15:57:51;;;;;;;5.97;1.90;;;;;;;;;;6110981;23;20488;-90
2023/09/24 16:00:57;;;;;;;4.65;2.10;;;;;;;;;;6113041;23;20157;-87
2023/09/24 16:04:05;;;;;;;12.32;1.92;;;;;;;;;;6095945;23;20210;-91
2023/09/24 16:07:12;;;;;;;7.32;1.98;;;;;;;;;;6112894;23;20169;-92
2023/09/24 17:09:01;;;;;;;9.50;2.88;;;;;;;;;;6127479;23;20217;-93
2023/09/24 17:12:09;;;;;;;4.75;2.28;;;;;;;;;;6123219;23;20173;-91
2023/09/24 17:15:14;;;;;;;8.40;3.05;;;;;;;;;;6123270;23;20242;-90
2023/09/24 17:18:20;;;;;;;11.00;3.65;;;;;;;;;;6123236;23;20192;-93
2023/09/24 17:21:26;;;;;;;7.55;2.88;;;;;;;;;;6123735;23;20231;-92
2023/09/24 17:24:34;;;;;;;4.50;2.30;;;;;;;;;;6123931;23;20173;-92
2023/09/24 17:27:40;;;;;;;5.95;2.50;;;;;;;;;;6122411;23;20609;-90
2023/09/24 17:30:45;;;;;;;5.65;2.55;;;;;;;;;;6124603;23;20180;-90
2023/09/24 17:33:50;;;;;;;8.52;2.80;;;;;;;;;;6123796;23;20242;-91
2023/09/24 17:36:56;;;;;;;5.80;2.60;;;;;;;;;;6125182;23;20196;-92
2023/09/24 17:40:03;;;;;;;7.03;2.80;;;;;;;;;;6125059;23;20172;-93
2023/09/24 17:43:08;;;;;;;6.75;2.75;;;;;;;;;;6123767;23;20172;-92
2023/09/24 17:46:16;;;;;;;12.35;5.20;;;;;;;;;;6123617;23;20177;-91
2023/09/24 17:49:24;;;;;;;11.27;5.47;;;;;;;;;;6123225;23;20229;-89
2023/09/24 17:52:29;;;;;;;11.95;3.95;;;;;;;;;;6124343;23;20168;-92
2023/09/24 17:55:35;;;;;;;8.00;3.13;;;;;;;;;;6122817;23;20754;-92
2023/09/24 17:58:40;;;;;;;7.25;3.10;;;;;;;;;;6121913;23;20524;-93
2023/09/24 18:01:51;;;;;;;14.48;3.58;;;;;;;;;;6122278;23;20169;-91
2023/09/24 18:04:56;;;;;;;3.90;2.40;;;;;;;;;;6122925;23;20169;-91
2023/09/24 18:08:03;;;;;;;7.10;2.72;;;;;;;;;;6110062;23;20193;-92
2023/09/24 18:11:12;;;;;;;7.63;3.17;;;;;;;;;;6109994;23;20600;-91
2023/09/24 18:14:17;;;;;;;7.95;2.85;;;;;;;;;;6111126;23;20161;-92
2023/09/24 18:17:22;;;;;;;8.30;2.90;;;;;;;;;;6110923;23;20178;-91
2023/09/24 18:20:27;;;;;;;8.65;2.92;;;;;;;;;;6110594;23;20222;-92
2023/09/24 18:23:33;;;;;;;5.85;2.65;;;;;;;;;;6110571;23;20186;-91
2023/09/24 18:26:40;;;;;;;6.88;3.00;;;;;;;;;;6127193;23;20448;-92
2023/09/24 18:29:57;;;;;;;7.32;3.25;;;;;;;;;;6109990;23;20241;-90
2023/09/24 18:33:02;;;;;;;12.68;3.38;;;;;;;;;;6108273;23;20185;-90
2023/09/24 18:36:07;;;;;;;4.93;2.53;;;;;;;;;;6108089;23;20161;-91
2023/09/24 18:39:13;;;;;;;6.40;3.10;;;;;;;;;;6110268;23;20218;-91
2023/09/24 18:42:22;;;;;;;8.32;3.30;;;;;;;;;;6113123;23;20598;-91
2023/09/24 18:45:28;;;;;;;6.32;2.50;;;;;;;;;;6110570;23;20166;-90
2023/09/24 18:48:36;;;;;;;6.35;3.00;;;;;;;;;;6112552;23;20557;-91
2023/09/24 18:51:41;;;;;;;7.50;2.72;;;;;;;;;;6110662;23;20218;-92
2023/09/24 18:54:47;;;;;;;7.57;2.90;;;;;;;;;;6111658;23;20173;-88
2023/09/24 18:57:54;;;;;;;6.90;2.70;;;;;;;;;;6112591;23;20197;-91
2023/09/24 19:01:00;;;;;;;8.10;2.95;;;;;;;;;;6114618;23;20169;-92
2023/09/24 19:04:06;;;;;;;7.25;3.20;;;;;;;;;;6112908;23;20187;-91
2023/09/24 19:07:12;;;;;;;6.45;2.92;;;;;;;;;;6119979;23;20213;-92
2023/09/24 19:10:18;;;;;;;5.85;2.65;;;;;;;;;;6125816;23;20216;-92
2023/09/24 19:13:29;;;;;;;5.95;2.92;;;;;;;;;;6127883;23;20165;-90
2023/09/24 19:16:37;;;;;;;8.30;2.85;;;;;;;;;;6128843;23;20153;-91
2023/09/24 19:19:43;;;;;;;5.28;2.70;;;;;;;;;;6126627;23;20225;-92
2023/09/24 19:22:48;;;;;;;6.80;3.15;;;;;;;;;;6127931;23;20170;-91
2023/09/24 19:25:54;;;;;;;4.60;2.58;;;;;;;;;;6127075;23;20169;-92
2023/09/24 19:29:01;;;;;;;8.38;2.65;;;;;;;;;;6126221;23;20193;-91
2023/09/24 19:32:06;;;;;;;5.15;2.72;;;;;;;;;;6125780;23;20169;-90
2023/09/24 19:35:12;;;;;;;5.10;2.40;;;;;;;;;;6124808;23;20169;-91
2023/09/24 19:38:17;;;;;;;6.35;2.83;;;;;;;;;;6124176;23;20244;-91
2023/09/24 19:41:23;;;;;;;6.65;2.90;;;;;;;;;;6124251;23;20177;-94
2023/09/24 19:44:29;;;;;;;4.88;2.65;;;;;;;;;;6122453;23;20176;-91
2023/09/24 20:43:20;;;;;;;9.02;2.88;;;;;;;;;;6079615;23;20206;-92
2023/09/24 20:46:25;;;;;;;5.10;2.58;;;;;;;;;;6118668;23;20192;-93
2023/09/24 20:49:30;;;;;;;5.35;2.70;;;;;;;;;;6105588;23;20274;-95
2023/09/24 20:52:35;;;;;;;10.63;3.13;;;;;;;;;;6121329;23;20241;-93
2023/09/24 20:55:40;;;;;;;8.73;2.97;;;;;;;;;;6121053;23;20223;-93
2023/09/24 20:58:48;;;;;;;6.93;3.00;;;;;;;;;;6119614;23;20192;-91
2023/09/24 21:01:53;;;;;;;7.30;3.00;;;;;;;;;;6120372;23;20169;-94
2023/09/24 21:04:58;;;;;;;7.68;2.83;;;;;;;;;;6121190;23;20168;-91
2023/09/24 21:08:03;;;;;;;9.88;3.08;;;;;;;;;;6121077;23;20177;-93
2023/09/24 21:11:09;;;;;;;5.53;2.97;;;;;;;;;;6120837;23;20169;-93
2023/09/24 21:14:15;;;;;;;6.50;2.55;;;;;;;;;;6119048;23;20177;-92
2023/09/24 21:17:20;;;;;;;5.32;2.40;;;;;;;;;;6118276;23;20173;-93
2023/09/24 21:20:25;;;;;;;6.82;2.20;;;;;;;;;;6116562;23;20172;-92
2023/09/24 21:23:30;;;;;;;6.65;2.65;;;;;;;;;;6120855;23;20173;-90
2023/09/24 21:26:35;;;;;;;4.50;2.72;;;;;;;;;;6118153;23;20185;-95
2023/09/24 21:29:41;;;;;;;4.80;2.58;;;;;;;;;;6119840;23;20172;-93
2023/09/24 21:32:46;;;;;;;6.15;2.50;;;;;;;;;;6118622;23;20217;-91
2023/09/24 21:35:51;;;;;;;4.72;2.67;;;;;;;;;;6118126;23;20197;-94
2023/09/24 21:38:56;;;;;;;7.90;2.90;;;;;;;;;;6118607;23;20172;-90
2023/09/24 21:42:01;;;;;;;7.95;2.97;;;;;;;;;;6119662;23;20168;-95
2023/09/24 21:45:08;;;;;;;8.13;2.83;;;;;;;;;;6133916;23;20197;-93
2023/09/24 21:48:13;;;;;;;5.90;2.80;;;;;;;;;;6118847;23;20173;-89
2023/09/24 21:51:18;;;;;;;5.78;3.10;;;;;;;;;;6117628;23;20154;-93
2023/09/24 21:54:23;;;;;;;6.60;2.80;;;;;;;;;;6117890;23;20166;-92
2023/09/24 21:57:28;;;;;;;6.60;3.05;;;;;;;;;;6118790;23;20213;-93
2023/09/24 22:00:35;;;;;;;7.75;2.60;;;;;;;;;;6118261;23;20298;-91
2023/09/24 22:03:40;;;;;;;4.15;2.50;;;;;;;;;;6118179;23;20169;-93
2023/09/24 22:06:45;;;;;;;7.72;2.65;;;;;;;;;;6119462;23;20170;-93
2023/09/24 22:09:50;;;;;;;6.55;2.72;;;;;;;;;;6117926;23;20170;-95
2023/09/24 22:12:55;;;;;;;7.80;2.50;;;;;;;;;;6119023;23;20247;-93
2023/09/24 22:16:01;;;;;;;8.52;2.78;;;;;;;;;;6120942;23;20173;-90
2023/09/24 22:19:09;;;;;;;5.57;2.58;;;;;;;;;;6123270;23;20197;-93
2023/09/24 22:22:18;;;;;;;11.95;5.47;;;;;;;;;;6143320;23;20176;-93
2023/09/24 22:25:23;;;;;;;5.43;2.72;;;;;;;;;;6140827;23;20290;-89
2023/09/24 22:28:28;;;;;;;9.80;2.63;;;;;;;;;;6122256;23;20168;-94
2023/09/24 22:31:35;;;;;;;6.40;2.97;;;;;;;;;;6121216;23;20806;-89
2023/09/24 22:34:39;;;;;;;14.70;3.58;;;;;;;;;;6120884;23;20173;-93
2023/09/24 22:37:46;;;;;;;6.45;2.95;;;;;;;;;;6134955;23;20216;-92
2023/09/24 22:40:52;;;;;;;6.85;3.13;;;;;;;;;;6118802;23;20172;-92